createdAt,value
2023-10-31T00:00:57.836Z,954.3
2023-10-31T00:06:09.822Z,954.31
2023-10-31T00:11:21.978Z,954.49
2023-10-31T00:16:34.187Z,954.62
2023-10-31T00:21:46.545Z,954.63
2023-10-31T00:26:58.513Z,954.63
2023-10-31T00:32:10.663Z,954.69
2023-10-31T00:37:22.821Z,954.74
2023-10-31T00:42:34.840Z,954.83
2023-10-31T00:47:46.870Z,954.89
2023-10-31T00:52:59.001Z,954.86
2023-10-31T00:58:11.006Z,954.85
2023-10-31T01:03:23.134Z,954.75
2023-10-31T01:08:35.197Z,954.81
2023-10-31T01:13:47.323Z,954.82
2023-10-31T01:18:59.332Z,954.84
2023-10-31T01:24:11.339Z,955.06
2023-10-31T01:29:23.298Z,955.29
2023-10-31T01:34:35.382Z,955.41
2023-10-31T01:39:47.685Z,955.46
2023-10-31T01:44:59.797Z,955.31
2023-10-31T01:50:11.806Z,955.36
2023-10-31T01:55:23.782Z,955.32
2023-10-31T02:00:35.746Z,955.42
2023-10-31T02:05:47.770Z,955.45
2023-10-31T02:10:59.784Z,955.56
2023-10-31T02:16:12.022Z,955.69
2023-10-31T02:21:24.133Z,955.65
2023-10-31T02:26:36.182Z,955.75
2023-10-31T02:26:48.175Z,955.66
2023-10-31T02:32:00.275Z,955.72
2023-10-31T02:37:12.412Z,955.69
2023-10-31T02:42:24.521Z,955.92
2023-10-31T02:47:36.747Z,955.87
2023-10-31T02:52:48.762Z,955.95
2023-10-31T02:58:00.736Z,956
2023-10-31T03:03:12.881Z,956.08
2023-10-31T03:08:25.147Z,956.13
2023-10-31T03:13:37.271Z,956.13
2023-10-31T03:18:49.268Z,956.18
2023-10-31T03:24:01.436Z,956.21
2023-10-31T03:29:13.423Z,956.19
2023-10-31T03:34:25.390Z,956.22
2023-10-31T03:39:37.498Z,956.28
2023-10-31T03:44:49.589Z,956.25
2023-10-31T03:50:01.681Z,956.12
2023-10-31T03:55:13.790Z,956.24
2023-10-31T04:00:26.012Z,956.29
2023-10-31T04:05:38.022Z,956.31
2023-10-31T04:10:50.011Z,956.4
2023-10-31T04:16:01.982Z,956.44
2023-10-31T04:21:14.068Z,956.47
2023-10-31T04:26:28.581Z,956.55
2023-10-31T04:31:44.170Z,956.6
2023-10-31T04:36:56.790Z,956.66
2023-10-31T04:42:08.985Z,956.62
2023-10-31T04:47:21.130Z,956.59
2023-10-31T04:52:33.202Z,956.59
2023-10-31T04:57:45.341Z,956.61
2023-10-31T05:02:57.502Z,956.64
2023-10-31T05:08:10.048Z,956.77
2023-10-31T05:13:22.135Z,956.8
2023-10-31T05:18:34.089Z,956.96
2023-10-31T05:23:46.169Z,956.83
2023-10-31T05:28:58.141Z,956.97
2023-10-31T05:34:10.774Z,956.99
2023-10-31T05:39:22.766Z,957.02
2023-10-31T05:44:34.865Z,957.05
2023-10-31T05:49:46.852Z,957.18
2023-10-31T05:49:58.952Z,957.2
2023-10-31T05:55:11.052Z,957.22
2023-10-31T06:00:23.189Z,957.26
2023-10-31T06:05:38.385Z,957.29
2023-10-31T06:10:50.500Z,957.34
2023-10-31T06:16:02.588Z,957.34
2023-10-31T06:21:14.824Z,957.36
2023-10-31T06:26:26.987Z,957.43
2023-10-31T06:31:39.159Z,957.62
2023-10-31T06:36:51.247Z,957.72
2023-10-31T06:42:03.246Z,957.84
2023-10-31T06:47:15.452Z,957.78
2023-10-31T06:52:27.434Z,957.88
2023-10-31T07:02:59.788Z,958.11
2023-10-31T07:08:11.996Z,958.14
2023-10-31T07:13:24.172Z,958.34
2023-10-31T07:18:36.149Z,958.26
2023-10-31T07:23:48.109Z,958.29
2023-10-31T07:29:00.236Z,958.25
2023-10-31T07:34:12.492Z,958.3
2023-10-31T07:39:24.472Z,958.38
2023-10-31T07:44:36.440Z,958.48
2023-10-31T07:49:48.932Z,958.41
2023-10-31T07:55:01.028Z,958.41
2023-10-31T08:00:13.105Z,958.39
2023-10-31T08:05:25.248Z,958.39
2023-10-31T08:10:37.384Z,958.49
2023-10-31T08:16:01.718Z,958.64
2023-10-31T08:21:13.778Z,958.61
2023-10-31T08:26:25.824Z,958.66
2023-10-31T08:31:37.800Z,958.82
2023-10-31T08:36:50.277Z,958.71
2023-10-31T08:42:02.767Z,958.75
2023-10-31T08:47:14.759Z,958.85
2023-10-31T08:52:26.739Z,958.78
2023-10-31T08:57:38.892Z,958.81
2023-10-31T09:02:51.115Z,958.73
2023-10-31T09:08:03.241Z,958.76
2023-10-31T09:13:15.254Z,958.78
2023-10-31T09:18:27.352Z,958.81
2023-10-31T09:23:39.305Z,958.93
2023-10-31T09:28:51.395Z,958.94
2023-10-31T09:34:03.437Z,959.04
2023-10-31T09:39:15.647Z,958.97
2023-10-31T09:44:27.634Z,958.84
2023-10-31T09:49:40.377Z,958.85
2023-10-31T09:54:52.347Z,958.92
2023-10-31T10:00:04.310Z,958.88
2023-10-31T10:05:16.334Z,958.93
2023-10-31T10:10:28.290Z,958.89
2023-10-31T10:15:40.247Z,958.93
2023-10-31T10:26:12.470Z,958.87
2023-10-31T10:31:24.686Z,958.98
2023-10-31T10:36:36.648Z,958.9
2023-10-31T10:41:48.637Z,959.03
2023-10-31T10:47:00.662Z,959.1
2023-10-31T10:52:12.626Z,959.06
2023-10-31T10:57:25.248Z,959.13
2023-10-31T11:02:37.352Z,959.13
2023-10-31T11:07:49.730Z,959.08
2023-10-31T11:13:01.790Z,958.99
2023-10-31T11:18:13.822Z,959.16
2023-10-31T11:23:25.864Z,959.13
2023-10-31T11:28:38.131Z,959.13
2023-10-31T11:33:50.092Z,959.04
2023-10-31T11:39:02.055Z,959.21
2023-10-31T11:44:14.071Z,959.27
2023-10-31T11:49:26.040Z,959.19
2023-10-31T11:54:38.084Z,959.22
2023-10-31T11:59:50.684Z,959.31
2023-10-31T12:05:02.921Z,959.44
2023-10-31T12:10:14.923Z,959.44
2023-10-31T12:15:27.516Z,959.43
2023-10-31T12:20:39.592Z,959.49
2023-10-31T12:25:51.696Z,959.51
2023-10-31T12:31:03.923Z,959.6
2023-10-31T12:36:15.902Z,959.55
2023-10-31T12:41:27.945Z,959.61
2023-10-31T12:46:40.370Z,959.67
2023-10-31T12:51:52.479Z,959.72
2023-10-31T12:57:04.636Z,959.71
2023-10-31T13:02:17.116Z,959.75
2023-10-31T13:07:29.138Z,959.74
2023-10-31T13:12:41.227Z,959.87
2023-10-31T13:17:53.218Z,959.84
2023-10-31T13:23:05.390Z,959.92
2023-10-31T13:28:17.558Z,959.95
2023-10-31T13:33:29.640Z,960
2023-10-31T13:38:41.596Z,959.96
2023-10-31T13:43:53.710Z,960.1
2023-10-31T13:49:05.734Z,960.06
2023-10-31T13:54:17.702Z,960.09
2023-10-31T13:59:33.439Z,960.18
2023-10-31T14:04:45.682Z,960.14
2023-10-31T14:09:57.789Z,960.22
2023-10-31T14:15:09.758Z,960.28
2023-10-31T14:20:22.337Z,960.31
2023-10-31T14:25:34.336Z,960.38
2023-10-31T14:30:46.549Z,960.38
2023-10-31T14:35:58.568Z,960.62
2023-10-31T14:41:10.586Z,960.62
2023-10-31T14:46:23.132Z,960.69
2023-10-31T14:51:35.259Z,960.69
2023-10-31T14:56:47.330Z,960.78
2023-10-31T15:01:59.543Z,960.89
2023-10-31T15:07:11.765Z,960.89
2023-10-31T15:12:23.741Z,960.97
2023-10-31T15:17:35.951Z,960.99
2023-10-31T15:22:47.962Z,961.14
2023-10-31T15:27:59.926Z,961.19
2023-10-31T15:33:11.962Z,961.26
2023-10-31T15:38:24.310Z,961.43
2023-10-31T15:43:36.310Z,961.41
2023-10-31T15:48:48.489Z,961.5
2023-10-31T15:54:00.478Z,961.48
2023-10-31T15:59:12.468Z,961.5
2023-10-31T16:04:24.526Z,961.67
2023-10-31T16:09:37.148Z,961.86
2023-10-31T16:14:49.238Z,961.89
2023-10-31T16:20:01.309Z,961.96
2023-10-31T16:25:14.076Z,962.02
2023-10-31T16:30:26.164Z,962.07
2023-10-31T16:35:38.388Z,962.13
2023-10-31T16:40:50.385Z,962.32
2023-10-31T16:46:02.507Z,962.43
2023-10-31T16:51:14.612Z,962.4
2023-10-31T16:56:26.597Z,962.41
2023-10-31T17:01:38.604Z,962.51
2023-10-31T17:06:50.836Z,962.55
2023-10-31T17:12:03.739Z,962.76
2023-10-31T17:17:16.944Z,962.91
2023-10-31T17:27:41.419Z,962.7
2023-10-31T17:32:53.514Z,962.82
2023-10-31T17:38:06.152Z,962.97
2023-10-31T17:43:18.838Z,963.08
2023-10-31T17:48:31.619Z,963.12
2023-10-31T17:53:43.818Z,963.19
2023-10-31T17:58:56.064Z,963.2
2023-10-31T18:04:08.149Z,963.35
2023-10-31T18:09:20.174Z,963.47
2023-10-31T18:14:32.156Z,963.59
2023-10-31T18:19:44.271Z,963.8
2023-10-31T18:24:56.234Z,963.69
2023-10-31T18:30:14.595Z,963.66
2023-10-31T18:35:26.626Z,963.76
2023-10-31T18:40:38.652Z,963.76
2023-10-31T18:45:50.793Z,963.82
2023-10-31T18:51:03.316Z,963.88
2023-10-31T18:56:15.322Z,963.93
2023-10-31T19:01:27.646Z,963.92
2023-10-31T19:06:40.057Z,964
2023-10-31T19:11:52.051Z,964.03
2023-10-31T19:17:04.027Z,964.03
2023-10-31T19:22:16.005Z,964.07
2023-10-31T19:27:28.031Z,964.2
2023-10-31T19:32:55.069Z,964.18
2023-10-31T19:38:07.238Z,964.26
2023-10-31T19:43:19.204Z,964.24
2023-10-31T19:48:33.809Z,964.32
2023-10-31T19:53:45.833Z,964.32
2023-10-31T20:04:17.988Z,964.31
2023-10-31T20:09:30.009Z,964.34
2023-10-31T20:14:59.569Z,964.31
2023-10-31T20:20:14.154Z,964.32
2023-10-31T20:25:26.335Z,964.37
2023-10-31T20:30:38.326Z,964.37
2023-10-31T20:35:50.652Z,964.35
2023-10-31T20:41:02.704Z,964.39
2023-10-31T20:46:14.679Z,964.34
2023-10-31T20:51:26.713Z,964.39
2023-10-31T20:56:38.843Z,964.42
2023-10-31T21:01:51.128Z,964.44
2023-10-31T21:07:03.157Z,964.36
2023-10-31T21:12:15.367Z,964.39
2023-10-31T21:17:28.400Z,964.45
2023-10-31T21:22:41.544Z,964.37
2023-10-31T21:27:53.766Z,964.29
2023-10-31T21:33:05.888Z,964.27
2023-10-31T21:38:17.898Z,964.33
2023-10-31T21:43:29.983Z,964.21
2023-10-31T21:48:41.973Z,964.24
2023-10-31T21:53:53.920Z,964.45
2023-10-31T21:59:06.013Z,964.27
2023-10-31T22:04:18.084Z,964.3
2023-10-31T22:09:30.181Z,964.34
2023-10-31T22:14:42.262Z,964.25
2023-10-31T22:19:54.240Z,964.32
2023-10-31T22:25:06.218Z,964.23
2023-10-31T22:30:18.316Z,964.16
2023-10-31T22:35:30.422Z,964.15
2023-10-31T22:40:42.621Z,964.22
2023-10-31T22:45:55.234Z,964.27
2023-10-31T22:51:07.228Z,964.24
2023-10-31T22:56:19.199Z,964.26
2023-10-31T23:01:31.495Z,964.32
2023-10-31T23:06:43.624Z,964.21
2023-10-31T23:11:55.727Z,964.13
2023-10-31T23:17:07.706Z,964.2
2023-10-31T23:22:19.697Z,964.14
2023-10-31T23:27:31.794Z,964.2
2023-10-31T23:32:43.959Z,964.11
2023-10-31T23:37:56.105Z,964.13
2023-10-31T23:43:08.213Z,964.17
2023-10-31T23:48:20.252Z,964.1
2023-10-31T23:53:32.261Z,964.09
2023-10-31T23:58:44.351Z,964.21
